首页
METAR-TAF:

METAR-TAF

机场 :

佛罗伦萨-佩雷托拉机场

佛罗伦萨, 意大利

纬度: 43-48N, 经度: 011-12E, 海拔: 40米

当前天气观测

该预报发布于22分钟前的21:50 UTC
风速4节,风向
温度 6°C
湿度 100%
气压 1020 hPa
能见度10公里或以上
少量云层高于5000英尺

METAR: LIRQ 262150Z 09004KT 9999 FEW050 06/06 Q1020

时间: 23:12 (22:12 UTC)

预报

该预报发布于5小时和12分钟前的17:00 UTC
预报有效从26日的 18点(UTC)到 27日的 18点(UTC)
风速5节,风向多变
能见度10公里或以上
散云层高于2000英尺
成为
从 26日的 19点(UTC)到 26日的 21点(UTC)
能見度: 4000
轻雾
成为
从 27日的 00点(UTC)到 27日的 02点(UTC)
能見度: 0800
多云层高于1200英尺
成为
从 27日的 08点(UTC)到 27日的 10点(UTC)
能見度: 6000
短暂存在
从 27日的 12点(UTC)到 27日的 18点(UTC)
能見度: 4000

TAF: LIRQ 261700Z 2618/2718 VRB05KT 9999 SCT020 BECMG 2619/2621 4000 BR BECMG 2700/2702 0800 FG BKN012 BECMG 2708/2710 6000 TEMPO 2712/2718 4000 RA

超过4000个机场的气象观测和天气预报(METAR&TAF报告)。

可查询的气象台以黄色和红色小点在地图上表示。

将鼠标移到小点上方,可查看气象台名称。

然后点击查看天气观测和预报。

如需切换地图:点击带黑十字的绿色按钮放大地图;点击带横线的绿色按钮缩小地图;或者点击绿色箭头查看邻近地区的地图。


METAR-TAF: